sensor_id;sensor_type;location;lat;lon;timestamp;P1;P2;P0
70255;PMS5003;57669;52.624;-1.688;2022-11-20T00:00:19;10;10;
70255;PMS5003;57669;52.624;-1.688;2022-11-20T00:02:44;10;9;
70255;PMS5003;57669;52.624;-1.688;2022-11-20T00:05:10;11;11;
70255;PMS5003;57669;52.624;-1.688;2022-11-20T00:07:35;14;11;
70255;PMS5003;57669;52.624;-1.688;2022-11-20T00:10:01;16;15;
70255;PMS5003;57669;52.624;-1.688;2022-11-20T00:12:26;12;11;
70255;PMS5003;57669;52.624;-1.688;2022-11-20T00:14:51;9;9;
70255;PMS5003;57669;52.624;-1.688;2022-11-20T00:17:17;13;12;
70255;PMS5003;57669;52.624;-1.688;2022-11-20T00:19:43;11;11;
70255;PMS5003;57669;52.624;-1.688;2022-11-20T00:22:08;11;11;
70255;PMS5003;57669;52.624;-1.688;2022-11-20T00:24:33;11;10;
70255;PMS5003;57669;52.624;-1.688;2022-11-20T00:29:24;13;13;
70255;PMS5003;57669;52.624;-1.688;2022-11-20T00:31:50;15;14;
70255;PMS5003;57669;52.624;-1.688;2022-11-20T00:34:15;15;13;
70255;PMS5003;57669;52.624;-1.688;2022-11-20T00:36:40;15;14;
70255;PMS5003;57669;52.624;-1.688;2022-11-20T00:39:06;11;11;
70255;PMS5003;57669;52.624;-1.688;2022-11-20T00:41:31;11;11;
70255;PMS5003;57669;52.624;-1.688;2022-11-20T00:43:57;12;12;
70255;PMS5003;57669;52.624;-1.688;2022-11-20T00:46:23;12;12;
70255;PMS5003;57669;52.624;-1.688;2022-11-20T00:48:47;8;8;
70255;PMS5003;57669;52.624;-1.688;2022-11-20T00:51:14;8;8;
70255;PMS5003;57669;52.624;-1.688;2022-11-20T00:53:38;16;15;
70255;PMS5003;57669;52.624;-1.688;2022-11-20T00:56:05;11;8;
70255;PMS5003;57669;52.624;-1.688;2022-11-20T00:58:30;11;11;
70255;PMS5003;57669;52.624;-1.688;2022-11-20T01:00:59;10;10;
70255;PMS5003;57669;52.624;-1.688;2022-11-20T01:03:21;10;10;
70255;PMS5003;57669;52.624;-1.688;2022-11-20T01:05:47;10;9;
70255;PMS5003;57669;52.624;-1.688;2022-11-20T01:08:12;12;11;
70255;PMS5003;57669;52.624;-1.688;2022-11-20T01:10:37;11;11;
70255;PMS5003;57669;52.624;-1.688;2022-11-20T01:13:03;13;13;
70255;PMS5003;57669;52.624;-1.688;2022-11-20T01:15:28;12;11;
70255;PMS5003;57669;52.624;-1.688;2022-11-20T01:17:54;14;13;
70255;PMS5003;57669;52.624;-1.688;2022-11-20T01:20:20;10;10;
70255;PMS5003;57669;52.624;-1.688;2022-11-20T01:22:45;12;12;
70255;PMS5003;57669;52.624;-1.688;2022-11-20T01:25:11;11;11;
70255;PMS5003;57669;52.624;-1.688;2022-11-20T01:27:37;10;10;
70255;PMS5003;57669;52.624;-1.688;2022-11-20T01:30:02;9;8;
70255;PMS5003;57669;52.624;-1.688;2022-11-20T01:32:27;8;8;
70255;PMS5003;57669;52.624;-1.688;2022-11-20T01:34:53;12;12;
70255;PMS5003;57669;52.624;-1.688;2022-11-20T01:37:18;11;11;
70255;PMS5003;57669;52.624;-1.688;2022-11-20T01:39:43;12;11;
70255;PMS5003;57669;52.624;-1.688;2022-11-20T01:42:08;15;13;
70255;PMS5003;57669;52.624;-1.688;2022-11-20T01:47:00;16;14;
70255;PMS5003;57669;52.624;-1.688;2022-11-20T01:49:25;10;9;
70255;PMS5003;57669;52.624;-1.688;2022-11-20T01:51:50;11;11;
70255;PMS5003;57669;52.624;-1.688;2022-11-20T01:54:15;14;13;
70255;PMS5003;57669;52.624;-1.688;2022-11-20T01:56:40;18;15;
70255;PMS5003;57669;52.624;-1.688;2022-11-20T01:59:05;14;12;
70255;PMS5003;57669;52.624;-1.688;2022-11-20T02:01:31;16;12;
70255;PMS5003;57669;52.624;-1.688;2022-11-20T02:03:56;8;8;
70255;PMS5003;57669;52.624;-1.688;2022-11-20T02:06:22;9;8;
70255;PMS5003;57669;52.624;-1.688;2022-11-20T02:08:47;8;7;
70255;PMS5003;57669;52.624;-1.688;2022-11-20T02:11:12;6;6;
70255;PMS5003;57669;52.624;-1.688;2022-11-20T02:13:38;9;9;
70255;PMS5003;57669;52.624;-1.688;2022-11-20T02:16:03;10;8;
70255;PMS5003;57669;52.624;-1.688;2022-11-20T02:18:29;7;7;
70255;PMS5003;57669;52.624;-1.688;2022-11-20T02:20:56;8;8;
70255;PMS5003;57669;52.624;-1.688;2022-11-20T02:23:20;7;7;
70255;PMS5003;57669;52.624;-1.688;2022-11-20T02:25:46;10;10;
70255;PMS5003;57669;52.624;-1.688;2022-11-20T02:28:11;7;7;
70255;PMS5003;57669;52.624;-1.688;2022-11-20T02:30:37;8;7;
70255;PMS5003;57669;52.624;-1.688;2022-11-20T02:37:54;7;7;
70255;PMS5003;57669;52.624;-1.688;2022-11-20T02:40:18;5;5;
70255;PMS5003;57669;52.624;-1.688;2022-11-20T02:42:43;5;5;
70255;PMS5003;57669;52.624;-1.688;2022-11-20T02:45:09;8;8;
70255;PMS5003;57669;52.624;-1.688;2022-11-20T02:47:34;8;6;
70255;PMS5003;57669;52.624;-1.688;2022-11-20T02:50:00;7;6;
70255;PMS5003;57669;52.624;-1.688;2022-11-20T02:52:26;5;5;
70255;PMS5003;57669;52.624;-1.688;2022-11-20T02:54:51;7;6;
70255;PMS5003;57669;52.624;-1.688;2022-11-20T02:57:16;6;6;
70255;PMS5003;57669;52.624;-1.688;2022-11-20T02:59:42;9;7;
70255;PMS5003;57669;52.624;-1.688;2022-11-20T03:02:08;8;7;
70255;PMS5003;57669;52.624;-1.688;2022-11-20T03:04:33;7;7;
70255;PMS5003;57669;52.624;-1.688;2022-11-20T03:06:59;6;5;
70255;PMS5003;57669;52.624;-1.688;2022-11-20T03:09:24;5;5;
70255;PMS5003;57669;52.624;-1.688;2022-11-20T03:11:50;8;8;
70255;PMS5003;57669;52.624;-1.688;2022-11-20T03:14:15;7;6;
70255;PMS5003;57669;52.624;-1.688;2022-11-20T03:16:41;8;7;
70255;PMS5003;57669;52.624;-1.688;2022-11-20T03:19:06;7;7;
70255;PMS5003;57669;52.624;-1.688;2022-11-20T03:21:32;5;5;
70255;PMS5003;57669;52.624;-1.688;2022-11-20T03:23:57;6;6;
70255;PMS5003;57669;52.624;-1.688;2022-11-20T03:26:25;6;5;
70255;PMS5003;57669;52.624;-1.688;2022-11-20T03:28:49;5;5;
70255;PMS5003;57669;52.624;-1.688;2022-11-20T03:33:39;9;7;
70255;PMS5003;57669;52.624;-1.688;2022-11-20T03:36:05;6;6;
70255;PMS5003;57669;52.624;-1.688;2022-11-20T03:38:30;11;9;
70255;PMS5003;57669;52.624;-1.688;2022-11-20T03:40:57;6;6;
70255;PMS5003;57669;52.624;-1.688;2022-11-20T03:43:20;7;5;
70255;PMS5003;57669;52.624;-1.688;2022-11-20T03:45:46;6;6;
70255;PMS5003;57669;52.624;-1.688;2022-11-20T03:48:11;7;6;
70255;PMS5003;57669;52.624;-1.688;2022-11-20T03:50:37;5;5;
70255;PMS5003;57669;52.624;-1.688;2022-11-20T03:53:02;7;6;
70255;PMS5003;57669;52.624;-1.688;2022-11-20T03:55:28;9;7;
70255;PMS5003;57669;52.624;-1.688;2022-11-20T03:57:53;12;11;
70255;PMS5003;57669;52.624;-1.688;2022-11-20T04:00:18;6;6;
70255;PMS5003;57669;52.624;-1.688;2022-11-20T04:02:44;8;8;
70255;PMS5003;57669;52.624;-1.688;2022-11-20T04:05:09;10;9;
70255;PMS5003;57669;52.624;-1.688;2022-11-20T04:07:35;5;5;
70255;PMS5003;57669;52.624;-1.688;2022-11-20T04:10:00;7;7;
70255;PMS5003;57669;52.624;-1.688;2022-11-20T04:12:26;4;4;
70255;PMS5003;57669;52.624;-1.688;2022-11-20T04:14:51;4;4;
70255;PMS5003;57669;52.624;-1.688;2022-11-20T04:17:17;4;4;
70255;PMS5003;57669;52.624;-1.688;2022-11-20T04:19:42;3;3;
70255;PMS5003;57669;52.624;-1.688;2022-11-20T04:22:07;4;3;
70255;PMS5003;57669;52.624;-1.688;2022-11-20T04:24:33;4;4;
70255;PMS5003;57669;52.624;-1.688;2022-11-20T04:26:58;4;3;
70255;PMS5003;57669;52.624;-1.688;2022-11-20T04:29:23;3;3;
70255;PMS5003;57669;52.624;-1.688;2022-11-20T04:31:49;4;4;
70255;PMS5003;57669;52.624;-1.688;2022-11-20T04:34:14;6;5;
70255;PMS5003;57669;52.624;-1.688;2022-11-20T04:36:40;4;4;
70255;PMS5003;57669;52.624;-1.688;2022-11-20T04:39:05;4;4;
70255;PMS5003;57669;52.624;-1.688;2022-11-20T04:41:31;5;5;
70255;PMS5003;57669;52.624;-1.688;2022-11-20T04:43:57;5;4;
70255;PMS5003;57669;52.624;-1.688;2022-11-20T04:46:22;5;5;
70255;PMS5003;57669;52.624;-1.688;2022-11-20T04:48:47;5;5;
70255;PMS5003;57669;52.624;-1.688;2022-11-20T04:51:13;7;6;
70255;PMS5003;57669;52.624;-1.688;2022-11-20T04:53:38;7;7;
70255;PMS5003;57669;52.624;-1.688;2022-11-20T04:56:04;8;8;
70255;PMS5003;57669;52.624;-1.688;2022-11-20T04:58:29;6;6;
70255;PMS5003;57669;52.624;-1.688;2022-11-20T05:03:20;9;9;
70255;PMS5003;57669;52.624;-1.688;2022-11-20T05:05:46;5;5;
70255;PMS5003;57669;52.624;-1.688;2022-11-20T05:08:11;8;8;
70255;PMS5003;57669;52.624;-1.688;2022-11-20T05:10:37;8;7;
70255;PMS5003;57669;52.624;-1.688;2022-11-20T05:13:02;8;7;
70255;PMS5003;57669;52.624;-1.688;2022-11-20T05:15:28;8;7;
70255;PMS5003;57669;52.624;-1.688;2022-11-20T05:17:53;7;7;
70255;PMS5003;57669;52.624;-1.688;2022-11-20T05:20:19;8;7;
70255;PMS5003;57669;52.624;-1.688;2022-11-20T05:22:44;8;8;
70255;PMS5003;57669;52.624;-1.688;2022-11-20T05:25:09;6;6;
70255;PMS5003;57669;52.624;-1.688;2022-11-20T05:27:34;7;7;
70255;PMS5003;57669;52.624;-1.688;2022-11-20T05:30:00;7;6;
70255;PMS5003;57669;52.624;-1.688;2022-11-20T05:32:25;6;6;
70255;PMS5003;57669;52.624;-1.688;2022-11-20T05:34:51;7;7;
70255;PMS5003;57669;52.624;-1.688;2022-11-20T05:37:16;7;7;
70255;PMS5003;57669;52.624;-1.688;2022-11-20T05:39:42;6;6;
70255;PMS5003;57669;52.624;-1.688;2022-11-20T05:42:07;8;7;
70255;PMS5003;57669;52.624;-1.688;2022-11-20T05:44:33;6;6;
70255;PMS5003;57669;52.624;-1.688;2022-11-20T05:46:58;6;6;
70255;PMS5003;57669;52.624;-1.688;2022-11-20T05:49:23;6;6;
70255;PMS5003;57669;52.624;-1.688;2022-11-20T05:51:48;7;6;
70255;PMS5003;57669;52.624;-1.688;2022-11-20T05:54:14;5;4;
70255;PMS5003;57669;52.624;-1.688;2022-11-20T05:56:39;5;5;
70255;PMS5003;57669;52.624;-1.688;2022-11-20T05:59:05;4;4;
70255;PMS5003;57669;52.624;-1.688;2022-11-20T06:01:30;3;3;
70255;PMS5003;57669;52.624;-1.688;2022-11-20T06:03:56;6;5;
70255;PMS5003;57669;52.624;-1.688;2022-11-20T06:06:21;3;3;
70255;PMS5003;57669;52.624;-1.688;2022-11-20T06:08:47;4;4;
70255;PMS5003;57669;52.624;-1.688;2022-11-20T06:11:12;5;5;
70255;PMS5003;57669;52.624;-1.688;2022-11-20T06:13:38;3;3;
70255;PMS5003;57669;52.624;-1.688;2022-11-20T06:16:03;4;4;
70255;PMS5003;57669;52.624;-1.688;2022-11-20T06:18:29;7;6;
70255;PMS5003;57669;52.624;-1.688;2022-11-20T06:23:20;5;4;
70255;PMS5003;57669;52.624;-1.688;2022-11-20T06:25:45;3;3;
70255;PMS5003;57669;52.624;-1.688;2022-11-20T06:28:12;2;2;
70255;PMS5003;57669;52.624;-1.688;2022-11-20T06:30:36;3;3;
70255;PMS5003;57669;52.624;-1.688;2022-11-20T06:33:01;3;3;
70255;PMS5003;57669;52.624;-1.688;2022-11-20T06:35:26;3;3;
70255;PMS5003;57669;52.624;-1.688;2022-11-20T06:40:17;3;2;
70255;PMS5003;57669;52.624;-1.688;2022-11-20T06:42:43;3;3;
70255;PMS5003;57669;52.624;-1.688;2022-11-20T06:45:09;2;2;
70255;PMS5003;57669;52.624;-1.688;2022-11-20T06:47:34;3;3;
70255;PMS5003;57669;52.624;-1.688;2022-11-20T06:50:00;3;3;
70255;PMS5003;57669;52.624;-1.688;2022-11-20T06:52:26;4;3;
70255;PMS5003;57669;52.624;-1.688;2022-11-20T06:54:51;4;3;
70255;PMS5003;57669;52.624;-1.688;2022-11-20T06:57:17;2;2;
70255;PMS5003;57669;52.624;-1.688;2022-11-20T06:59:42;4;4;
70255;PMS5003;57669;52.624;-1.688;2022-11-20T07:02:09;2;2;
70255;PMS5003;57669;52.624;-1.688;2022-11-20T07:04:32;4;4;
70255;PMS5003;57669;52.624;-1.688;2022-11-20T07:06:58;4;3;
70255;PMS5003;57669;52.624;-1.688;2022-11-20T07:09:24;5;5;
70255;PMS5003;57669;52.624;-1.688;2022-11-20T07:11:50;2;2;
70255;PMS5003;57669;52.624;-1.688;2022-11-20T07:14:15;4;4;
70255;PMS5003;57669;52.624;-1.688;2022-11-20T07:16:40;4;2;
70255;PMS5003;57669;52.624;-1.688;2022-11-20T07:19:05;5;3;
70255;PMS5003;57669;52.624;-1.688;2022-11-20T07:21:31;3;3;
70255;PMS5003;57669;52.624;-1.688;2022-11-20T07:23:57;3;3;
70255;PMS5003;57669;52.624;-1.688;2022-11-20T07:26:22;4;4;
70255;PMS5003;57669;52.624;-1.688;2022-11-20T07:28:48;3;3;
70255;PMS5003;57669;52.624;-1.688;2022-11-20T07:31:14;6;6;
70255;PMS5003;57669;52.624;-1.688;2022-11-20T07:33:39;5;4;
70255;PMS5003;57669;52.624;-1.688;2022-11-20T07:36:05;3;3;
70255;PMS5003;57669;52.624;-1.688;2022-11-20T07:38:30;3;3;
70255;PMS5003;57669;52.624;-1.688;2022-11-20T07:40:56;4;4;
70255;PMS5003;57669;52.624;-1.688;2022-11-20T07:43:20;4;4;
70255;PMS5003;57669;52.624;-1.688;2022-11-20T07:45:46;5;5;
70255;PMS5003;57669;52.624;-1.688;2022-11-20T07:48:11;5;4;
70255;PMS5003;57669;52.624;-1.688;2022-11-20T07:50:37;5;4;
70255;PMS5003;57669;52.624;-1.688;2022-11-20T07:53:03;5;4;
70255;PMS5003;57669;52.624;-1.688;2022-11-20T07:55:28;6;5;
70255;PMS5003;57669;52.624;-1.688;2022-11-20T07:57:54;4;4;
70255;PMS5003;57669;52.624;-1.688;2022-11-20T08:00:19;2;2;
70255;PMS5003;57669;52.624;-1.688;2022-11-20T08:02:44;4;3;
70255;PMS5003;57669;52.624;-1.688;2022-11-20T08:05:09;3;3;
70255;PMS5003;57669;52.624;-1.688;2022-11-20T08:07:35;4;4;
70255;PMS5003;57669;52.624;-1.688;2022-11-20T08:12:26;7;3;
70255;PMS5003;57669;52.624;-1.688;2022-11-20T08:14:51;3;2;
70255;PMS5003;57669;52.624;-1.688;2022-11-20T08:17:16;4;4;
70255;PMS5003;57669;52.624;-1.688;2022-11-20T08:19:42;4;3;
70255;PMS5003;57669;52.624;-1.688;2022-11-20T08:22:07;4;4;
70255;PMS5003;57669;52.624;-1.688;2022-11-20T08:24:32;5;5;
70255;PMS5003;57669;52.624;-1.688;2022-11-20T08:26:58;3;3;
70255;PMS5003;57669;52.624;-1.688;2022-11-20T08:29:24;4;4;
70255;PMS5003;57669;52.624;-1.688;2022-11-20T08:31:50;4;4;
70255;PMS5003;57669;52.624;-1.688;2022-11-20T08:34:15;3;3;
70255;PMS5003;57669;52.624;-1.688;2022-11-20T08:36:40;7;7;
70255;PMS5003;57669;52.624;-1.688;2022-11-20T08:39:06;9;7;
70255;PMS5003;57669;52.624;-1.688;2022-11-20T08:41:31;7;7;
70255;PMS5003;57669;52.624;-1.688;2022-11-20T08:43:57;3;3;
70255;PMS5003;57669;52.624;-1.688;2022-11-20T08:46:22;4;4;
70255;PMS5003;57669;52.624;-1.688;2022-11-20T08:48:47;6;4;
70255;PMS5003;57669;52.624;-1.688;2022-11-20T08:51:12;5;5;
70255;PMS5003;57669;52.624;-1.688;2022-11-20T08:53:38;6;4;
70255;PMS5003;57669;52.624;-1.688;2022-11-20T08:56:04;6;5;
70255;PMS5003;57669;52.624;-1.688;2022-11-20T08:58:29;6;5;
70255;PMS5003;57669;52.624;-1.688;2022-11-20T09:00:55;6;5;
70255;PMS5003;57669;52.624;-1.688;2022-11-20T09:03:20;5;4;
70255;PMS5003;57669;52.624;-1.688;2022-11-20T09:05:45;7;6;
70255;PMS5003;57669;52.624;-1.688;2022-11-20T09:08:11;6;6;
70255;PMS5003;57669;52.624;-1.688;2022-11-20T09:10:37;3;3;
70255;PMS5003;57669;52.624;-1.688;2022-11-20T09:13:02;4;4;
70255;PMS5003;57669;52.624;-1.688;2022-11-20T09:15:28;6;6;
70255;PMS5003;57669;52.624;-1.688;2022-11-20T09:17:54;3;3;
70255;PMS5003;57669;52.624;-1.688;2022-11-20T09:20:20;5;4;
70255;PMS5003;57669;52.624;-1.688;2022-11-20T09:22:44;7;6;
70255;PMS5003;57669;52.624;-1.688;2022-11-20T09:25:10;6;5;
70255;PMS5003;57669;52.624;-1.688;2022-11-20T09:27:36;7;6;
70255;PMS5003;57669;52.624;-1.688;2022-11-20T09:30:02;7;5;
70255;PMS5003;57669;52.624;-1.688;2022-11-20T09:32:27;7;6;
70255;PMS5003;57669;52.624;-1.688;2022-11-20T09:34:53;9;8;
70255;PMS5003;57669;52.624;-1.688;2022-11-20T09:37:18;6;6;
70255;PMS5003;57669;52.624;-1.688;2022-11-20T09:39:43;8;7;
70255;PMS5003;57669;52.624;-1.688;2022-11-20T09:42:14;8;7;
70255;PMS5003;57669;52.624;-1.688;2022-11-20T09:44:39;9;6;
70255;PMS5003;57669;52.624;-1.688;2022-11-20T09:47:01;6;3;
70255;PMS5003;57669;52.624;-1.688;2022-11-20T09:49:28;10;6;
70255;PMS5003;57669;52.624;-1.688;2022-11-20T09:51:53;5;5;
70255;PMS5003;57669;52.624;-1.688;2022-11-20T09:54:18;5;3;
70255;PMS5003;57669;52.624;-1.688;2022-11-20T09:56:44;8;6;
70255;PMS5003;57669;52.624;-1.688;2022-11-20T09:59:12;7;4;
70255;PMS5003;57669;52.624;-1.688;2022-11-20T10:01:35;9;6;
70255;PMS5003;57669;52.624;-1.688;2022-11-20T10:04:00;8;6;
70255;PMS5003;57669;52.624;-1.688;2022-11-20T10:06:28;9;7;
70255;PMS5003;57669;52.624;-1.688;2022-11-20T10:08:53;4;3;
70255;PMS5003;57669;52.624;-1.688;2022-11-20T10:11:19;6;6;
70255;PMS5003;57669;52.624;-1.688;2022-11-20T10:13:45;8;5;
70255;PMS5003;57669;52.624;-1.688;2022-11-20T10:16:12;5;4;
70255;PMS5003;57669;52.624;-1.688;2022-11-20T10:18:38;11;6;
70255;PMS5003;57669;52.624;-1.688;2022-11-20T10:21:01;10;7;
70255;PMS5003;57669;52.624;-1.688;2022-11-20T10:23:29;6;5;
70255;PMS5003;57669;52.624;-1.688;2022-11-20T10:25:51;3;2;
70255;PMS5003;57669;52.624;-1.688;2022-11-20T10:28:19;7;4;
70255;PMS5003;57669;52.624;-1.688;2022-11-20T10:30:42;5;3;
70255;PMS5003;57669;52.624;-1.688;2022-11-20T10:33:11;9;8;
70255;PMS5003;57669;52.624;-1.688;2022-11-20T10:35:34;9;5;
70255;PMS5003;57669;52.624;-1.688;2022-11-20T10:37:59;6;3;
70255;PMS5003;57669;52.624;-1.688;2022-11-20T10:40:27;7;7;
70255;PMS5003;57669;52.624;-1.688;2022-11-20T10:42:51;4;4;
70255;PMS5003;57669;52.624;-1.688;2022-11-20T10:45:16;10;10;
70255;PMS5003;57669;52.624;-1.688;2022-11-20T10:47:41;5;4;
70255;PMS5003;57669;52.624;-1.688;2022-11-20T10:50:09;11;7;
70255;PMS5003;57669;52.624;-1.688;2022-11-20T10:52:34;4;2;
70255;PMS5003;57669;52.624;-1.688;2022-11-20T10:54:59;10;6;
70255;PMS5003;57669;52.624;-1.688;2022-11-20T10:57:26;13;6;
70255;PMS5003;57669;52.624;-1.688;2022-11-20T10:59:52;7;4;
70255;PMS5003;57669;52.624;-1.688;2022-11-20T11:02:16;7;5;
70255;PMS5003;57669;52.624;-1.688;2022-11-20T11:04:43;8;5;
70255;PMS5003;57669;52.624;-1.688;2022-11-20T11:07:07;10;9;
70255;PMS5003;57669;52.624;-1.688;2022-11-20T11:09:32;6;3;
70255;PMS5003;57669;52.624;-1.688;2022-11-20T11:11:57;7;5;
70255;PMS5003;57669;52.624;-1.688;2022-11-20T11:14:23;4;3;
70255;PMS5003;57669;52.624;-1.688;2022-11-20T11:16:49;6;4;
70255;PMS5003;57669;52.624;-1.688;2022-11-20T11:19:14;11;7;
70255;PMS5003;57669;52.624;-1.688;2022-11-20T11:21:44;7;4;
70255;PMS5003;57669;52.624;-1.688;2022-11-20T11:26:31;7;5;
70255;PMS5003;57669;52.624;-1.688;2022-11-20T11:28:58;7;5;
70255;PMS5003;57669;52.624;-1.688;2022-11-20T11:31:23;5;5;
70255;PMS5003;57669;52.624;-1.688;2022-11-20T11:33:49;6;5;
70255;PMS5003;57669;52.624;-1.688;2022-11-20T11:36:16;12;10;
70255;PMS5003;57669;52.624;-1.688;2022-11-20T11:38:40;7;5;
70255;PMS5003;57669;52.624;-1.688;2022-11-20T11:41:05;7;6;
70255;PMS5003;57669;52.624;-1.688;2022-11-20T11:43:31;6;5;
70255;PMS5003;57669;52.624;-1.688;2022-11-20T11:45:56;3;2;
70255;PMS5003;57669;52.624;-1.688;2022-11-20T11:48:21;9;6;
70255;PMS5003;57669;52.624;-1.688;2022-11-20T11:50:48;11;5;
70255;PMS5003;57669;52.624;-1.688;2022-11-20T11:53:13;9;7;
70255;PMS5003;57669;52.624;-1.688;2022-11-20T11:55:39;4;4;
70255;PMS5003;57669;52.624;-1.688;2022-11-20T11:58:09;5;3;
70255;PMS5003;57669;52.624;-1.688;2022-11-20T12:00:29;7;4;
70255;PMS5003;57669;52.624;-1.688;2022-11-20T12:02:57;5;3;
70255;PMS5003;57669;52.624;-1.688;2022-11-20T12:05:21;2;1;
70255;PMS5003;57669;52.624;-1.688;2022-11-20T12:07:47;5;4;
70255;PMS5003;57669;52.624;-1.688;2022-11-20T12:10:14;7;5;
70255;PMS5003;57669;52.624;-1.688;2022-11-20T12:12:38;4;3;
70255;PMS5003;57669;52.624;-1.688;2022-11-20T12:15:04;6;3;
70255;PMS5003;57669;52.624;-1.688;2022-11-20T12:17:29;4;3;
70255;PMS5003;57669;52.624;-1.688;2022-11-20T12:19:55;2;1;
70255;PMS5003;57669;52.624;-1.688;2022-11-20T12:22:24;6;6;
70255;PMS5003;57669;52.624;-1.688;2022-11-20T12:24:49;3;2;
70255;PMS5003;57669;52.624;-1.688;2022-11-20T12:27:21;4;4;
70255;PMS5003;57669;52.624;-1.688;2022-11-20T12:29:42;4;3;
70255;PMS5003;57669;52.624;-1.688;2022-11-20T12:32:11;4;3;
70255;PMS5003;57669;52.624;-1.688;2022-11-20T12:34:32;4;3;
70255;PMS5003;57669;52.624;-1.688;2022-11-20T12:36:55;6;5;
70255;PMS5003;57669;52.624;-1.688;2022-11-20T12:39:22;4;3;
70255;PMS5003;57669;52.624;-1.688;2022-11-20T12:41:48;8;5;
70255;PMS5003;57669;52.624;-1.688;2022-11-20T12:44:15;5;3;
70255;PMS5003;57669;52.624;-1.688;2022-11-20T12:46:37;6;3;
70255;PMS5003;57669;52.624;-1.688;2022-11-20T12:49:04;4;3;
70255;PMS5003;57669;52.624;-1.688;2022-11-20T12:51:34;3;2;
70255;PMS5003;57669;52.624;-1.688;2022-11-20T12:53:57;5;4;
70255;PMS5003;57669;52.624;-1.688;2022-11-20T12:56:22;3;3;
70255;PMS5003;57669;52.624;-1.688;2022-11-20T12:58:46;3;3;
70255;PMS5003;57669;52.624;-1.688;2022-11-20T13:01:15;4;2;
70255;PMS5003;57669;52.624;-1.688;2022-11-20T13:03:38;2;1;
70255;PMS5003;57669;52.624;-1.688;2022-11-20T13:06:05;4;3;
70255;PMS5003;57669;52.624;-1.688;2022-11-20T13:08:29;5;3;
70255;PMS5003;57669;52.624;-1.688;2022-11-20T13:10:56;4;3;
70255;PMS5003;57669;52.624;-1.688;2022-11-20T13:13:22;4;2;
70255;PMS5003;57669;52.624;-1.688;2022-11-20T13:15:48;3;2;
70255;PMS5003;57669;52.624;-1.688;2022-11-20T13:18:11;3;3;
70255;PMS5003;57669;52.624;-1.688;2022-11-20T13:20:41;2;2;
70255;PMS5003;57669;52.624;-1.688;2022-11-20T13:23:02;0;0;
70255;PMS5003;57669;52.624;-1.688;2022-11-20T13:25:28;5;5;
70255;PMS5003;57669;52.624;-1.688;2022-11-20T13:27:53;5;4;
70255;PMS5003;57669;52.624;-1.688;2022-11-20T13:30:19;5;3;
70255;PMS5003;57669;52.624;-1.688;2022-11-20T13:32:48;4;4;
70255;PMS5003;57669;52.624;-1.688;2022-11-20T13:35:10;4;3;
70255;PMS5003;57669;52.624;-1.688;2022-11-20T13:37:37;5;4;
70255;PMS5003;57669;52.624;-1.688;2022-11-20T13:42:27;4;3;
70255;PMS5003;57669;52.624;-1.688;2022-11-20T13:44:53;4;3;
70255;PMS5003;57669;52.624;-1.688;2022-11-20T13:47:20;8;7;
70255;PMS5003;57669;52.624;-1.688;2022-11-20T13:49:45;5;5;
70255;PMS5003;57669;52.624;-1.688;2022-11-20T13:54:43;6;5;
70255;PMS5003;57669;52.624;-1.688;2022-11-20T13:57:04;5;4;
70255;PMS5003;57669;52.624;-1.688;2022-11-20T13:59:31;7;4;
70255;PMS5003;57669;52.624;-1.688;2022-11-20T14:01:53;4;3;
70255;PMS5003;57669;52.624;-1.688;2022-11-20T14:04:20;4;4;
70255;PMS5003;57669;52.624;-1.688;2022-11-20T14:06:45;2;1;
70255;PMS5003;57669;52.624;-1.688;2022-11-20T14:09:11;7;4;
70255;PMS5003;57669;52.624;-1.688;2022-11-20T14:11:36;4;3;
70255;PMS5003;57669;52.624;-1.688;2022-11-20T14:14:02;6;5;
70255;PMS5003;57669;52.624;-1.688;2022-11-20T14:16:28;7;4;
70255;PMS5003;57669;52.624;-1.688;2022-11-20T14:18:53;4;3;
70255;PMS5003;57669;52.624;-1.688;2022-11-20T14:21:23;4;3;
70255;PMS5003;57669;52.624;-1.688;2022-11-20T14:23:44;4;3;
70255;PMS5003;57669;52.624;-1.688;2022-11-20T14:26:11;3;3;
70255;PMS5003;57669;52.624;-1.688;2022-11-20T14:28:36;5;4;
70255;PMS5003;57669;52.624;-1.688;2022-11-20T14:31:01;6;4;
70255;PMS5003;57669;52.624;-1.688;2022-11-20T14:33:27;4;3;
70255;PMS5003;57669;52.624;-1.688;2022-11-20T14:35:53;3;3;
70255;PMS5003;57669;52.624;-1.688;2022-11-20T14:38:19;0;0;
70255;PMS5003;57669;52.624;-1.688;2022-11-20T14:40:43;1;1;
70255;PMS5003;57669;52.624;-1.688;2022-11-20T14:45:34;1;1;
70255;PMS5003;57669;52.624;-1.688;2022-11-20T14:48:00;3;3;
70255;PMS5003;57669;52.624;-1.688;2022-11-20T14:50:26;3;1;
70255;PMS5003;57669;52.624;-1.688;2022-11-20T14:52:51;2;2;
70255;PMS5003;57669;52.624;-1.688;2022-11-20T14:57:42;1;1;
70255;PMS5003;57669;52.624;-1.688;2022-11-20T15:00:08;1;1;
70255;PMS5003;57669;52.624;-1.688;2022-11-20T15:02:33;3;1;
70255;PMS5003;57669;52.624;-1.688;2022-11-20T15:04:58;3;2;
70255;PMS5003;57669;52.624;-1.688;2022-11-20T15:07:24;2;2;
70255;PMS5003;57669;52.624;-1.688;2022-11-20T15:12:16;2;1;
70255;PMS5003;57669;52.624;-1.688;2022-11-20T15:14:41;4;3;
70255;PMS5003;57669;52.624;-1.688;2022-11-20T15:17:07;2;2;
70255;PMS5003;57669;52.624;-1.688;2022-11-20T15:19:32;3;2;
70255;PMS5003;57669;52.624;-1.688;2022-11-20T15:21:58;2;1;
70255;PMS5003;57669;52.624;-1.688;2022-11-20T15:24:24;4;2;
70255;PMS5003;57669;52.624;-1.688;2022-11-20T15:26:50;3;3;
70255;PMS5003;57669;52.624;-1.688;2022-11-20T15:29:16;5;4;
70255;PMS5003;57669;52.624;-1.688;2022-11-20T15:31:41;3;3;
70255;PMS5003;57669;52.624;-1.688;2022-11-20T15:34:09;2;2;
70255;PMS5003;57669;52.624;-1.688;2022-11-20T15:36:33;1;1;
70255;PMS5003;57669;52.624;-1.688;2022-11-20T15:38:59;4;2;
70255;PMS5003;57669;52.624;-1.688;2022-11-20T15:41:24;2;2;
70255;PMS5003;57669;52.624;-1.688;2022-11-20T15:43:50;2;2;
70255;PMS5003;57669;52.624;-1.688;2022-11-20T15:46:17;1;1;
70255;PMS5003;57669;52.624;-1.688;2022-11-20T15:48:42;1;1;
70255;PMS5003;57669;52.624;-1.688;2022-11-20T15:51:11;3;3;
70255;PMS5003;57669;52.624;-1.688;2022-11-20T15:53:33;6;6;
70255;PMS5003;57669;52.624;-1.688;2022-11-20T15:55:59;5;4;
70255;PMS5003;57669;52.624;-1.688;2022-11-20T15:58:24;5;5;
70255;PMS5003;57669;52.624;-1.688;2022-11-20T16:00:50;6;4;
70255;PMS5003;57669;52.624;-1.688;2022-11-20T16:03:16;4;4;
70255;PMS5003;57669;52.624;-1.688;2022-11-20T16:05:42;6;6;
70255;PMS5003;57669;52.624;-1.688;2022-11-20T16:08:08;5;4;
70255;PMS5003;57669;52.624;-1.688;2022-11-20T16:10:34;6;5;
70255;PMS5003;57669;52.624;-1.688;2022-11-20T16:12:59;4;4;
70255;PMS5003;57669;52.624;-1.688;2022-11-20T16:15:24;5;5;
70255;PMS5003;57669;52.624;-1.688;2022-11-20T16:17:50;6;6;
70255;PMS5003;57669;52.624;-1.688;2022-11-20T16:20:15;7;5;
70255;PMS5003;57669;52.624;-1.688;2022-11-20T16:22:41;3;2;
70255;PMS5003;57669;52.624;-1.688;2022-11-20T16:25:06;6;5;
70255;PMS5003;57669;52.624;-1.688;2022-11-20T16:27:31;4;4;
70255;PMS5003;57669;52.624;-1.688;2022-11-20T16:29:57;3;3;
70255;PMS5003;57669;52.624;-1.688;2022-11-20T16:32:22;2;2;
70255;PMS5003;57669;52.624;-1.688;2022-11-20T16:34:47;3;3;
70255;PMS5003;57669;52.624;-1.688;2022-11-20T16:37:13;1;1;
70255;PMS5003;57669;52.624;-1.688;2022-11-20T16:39:38;4;3;
70255;PMS5003;57669;52.624;-1.688;2022-11-20T16:42:04;3;2;
70255;PMS5003;57669;52.624;-1.688;2022-11-20T16:44:29;5;3;
70255;PMS5003;57669;52.624;-1.688;2022-11-20T16:46:55;4;4;
70255;PMS5003;57669;52.624;-1.688;2022-11-20T16:49:20;3;3;
70255;PMS5003;57669;52.624;-1.688;2022-11-20T16:51:46;3;2;
70255;PMS5003;57669;52.624;-1.688;2022-11-20T16:54:11;3;3;